Terminal Aerodrome Forecast
Issued by NWS Sioux Falls, SD

Home | Current Version | Previous Version | Text Only | Print | Product List | Glossary On
Versions: 1 2 3 4 5 6 7 8 9 10 11 12 13 14 15 16 17 18
000
FTUS43 KFSD 261120
TAFFSD
TAF
KFSD 261120Z 2612/2712 06006KT 4SM BR OVC003
      TEMPO 2612/2614 2SM BR
     FM261700 04005KT P6SM OVC008
     FM262100 01006KT P6SM OVC012
     FM270800 00000KT 5SM BR BKN008=

USA.gov is the U.S. government's official web portal to all federal, state and local government web resources and services.